Date,TemperatureHighF,TemperatureAvgF,TemperatureLowF,DewpointHighF,DewpointAvgF,DewpointLowF,HumidityHigh,HumidityAvg,HumidityLow,PressureMaxIn,PressureMinIn,WindSpeedMaxMPH,WindSpeedAvgMPH,GustSpeedMaxMPH,PrecipitationSumIn
2013-3-1,31.0,29.5,27.0,29.0,26.4,24.0,92,88,84,30.12,29.98,15,10,22,0.01
2013-3-2,30.0,27.0,22.0,26.0,22.6,16.0,90,83,75,30.16,30.09,14,10,21,0.00
2013-3-3,34.0,25.8,18.0,23.0,18.1,14.0,89,73,50,30.14,30.06,8,3,13,0.00
2013-3-4,35.0,30.8,25.0,29.0,24.8,20.0,84,78,67,30.09,29.89,13,3,17,0.00
2013-3-5,35.0,32.3,29.0,33.0,29.4,26.0,97,89,82,29.89,29.70,15,5,23,0.09
2013-3-6,31.0,28.5,27.0,28.0,25.9,24.0,93,90,88,30.29,29.88,20,12,31,0.02
2013-3-7,36.0,30.2,26.0,29.0,25.4,23.0,90,83,69,30.40,30.29,7,2,11,0.04
2013-3-8,43.0,32.7,23.0,32.0,26.9,20.0,90,80,63,30.46,30.28,8,2,11,0.02
2013-3-9,48.0,40.3,32.0,40.0,33.8,28.0,89,78,69,30.29,29.81,16,10,21,0.01
2013-3-10,59.0,52.4,47.0,50.0,45.1,38.0,91,77,67,29.82,29.60,19,13,28,0.11
2013-3-11,51.0,39.5,33.0,49.0,36.9,29.0,92,90,86,29.84,29.56,20,11,27,0.10
2013-3-12,40.0,33.3,29.0,33.0,27.7,22.0,90,80,68,30.04,29.84,20,12,28,0.01
2013-3-13,34.0,28.3,24.0,23.0,21.2,19.0,89,75,59,30.34,30.04,18,12,28,0.00
2013-3-14,37.0,30.0,23.0,31.0,25.6,19.0,92,84,67,30.34,30.10,9,4,15,0.00
2013-3-15,53.0,40.3,30.0,46.0,35.9,27.0,91,85,72,30.10,29.62,13,4,18,0.01
2013-3-16,44.0,37.0,32.0,40.0,33.4,27.0,94,87,77,30.06,29.57,17,7,22,0.01
2013-3-17,40.0,34.1,31.0,30.0,27.4,25.0,85,77,64,30.13,29.88,11,5,16,0.00
2013-3-18,39.0,34.2,27.0,36.0,31.1,20.0,94,89,75,29.89,29.60,18,8,27,0.01
2013-3-19,40.0,29.9,22.0,24.0,19.6,14.0,79,66,45,30.11,29.86,21,14,29,0.01
2013-3-20,29.0,25.1,19.0,22.0,14.6,10.0,86,65,46,30.12,30.03,21,13,29,0.00
2013-3-21,35.0,24.3,13.0,19.0,13.7,8.0,85,65,42,30.07,29.99,14,4,21,0.00
2013-3-22,44.0,32.1,20.0,25.0,18.2,15.0,85,59,33,30.06,29.98,5,1,10,0.00
2013-3-23,47.0,37.3,31.0,27.0,24.8,20.0,80,62,43,30.06,29.90,10,3,16,0.00
2013-3-24,33.0,31.0,29.0,29.0,27.3,25.0,94,86,77,29.92,29.49,16,11,25,0.00
2013-3-25,34.0,31.2,27.0,31.0,28.3,25.0,93,89,83,30.05,29.70,18,14,26,0.03
2013-3-26,37.0,31.8,25.0,30.0,26.8,22.0,90,82,63,30.26,30.05,11,7,15,0.01
2013-3-27,40.0,33.6,26.0,30.0,26.4,23.0,88,76,55,30.34,30.26,9,4,13,0.00
2013-3-28,47.0,35.8,25.0,34.0,27.6,21.0,85,73,54,30.36,30.27,4,1,7,0.00
2013-3-29,54.0,43.3,33.0,38.0,32.9,28.0,88,68,45,30.29,30.18,5,1,10,0.00
2013-3-30,56.0,45.7,33.0,42.0,36.0,-99.9,86,73,53,30.19,29.84,12,6,19,0.00
2013-3-31,61.0,49.8,40.0,47.0,42.1,32.0,92,76,52,29.85,29.71,18,9,26,0.00